sensor_id;sensor_type;location;lat;lon;timestamp;P1;durP1;ratioP1;P2;durP2;ratioP2
80344;SDS011;69658;44.498;0.166;2023-10-09T00:04:29;4.20;;;1.77;;
80344;SDS011;69658;44.498;0.166;2023-10-09T00:10:04;9.40;;;2.20;;
80344;SDS011;69658;44.498;0.166;2023-10-09T00:15:34;7.93;;;2.53;;
80344;SDS011;69658;44.498;0.166;2023-10-09T00:21:14;3.37;;;1.80;;
80344;SDS011;69658;44.498;0.166;2023-10-09T00:26:45;5.80;;;1.90;;
80344;SDS011;69658;44.498;0.166;2023-10-09T00:32:21;7.10;;;2.63;;
80344;SDS011;69658;44.498;0.166;2023-10-09T00:37:46;4.50;;;2.37;;
80344;SDS011;69658;44.498;0.166;2023-10-09T00:43:19;7.60;;;2.30;;
80344;SDS011;69658;44.498;0.166;2023-10-09T00:48:52;4.00;;;1.93;;
80344;SDS011;69658;44.498;0.166;2023-10-09T00:54:27;4.33;;;1.93;;
80344;SDS011;69658;44.498;0.166;2023-10-09T01:00:00;6.47;;;2.20;;
80344;SDS011;69658;44.498;0.166;2023-10-09T01:05:30;2.90;;;1.70;;
80344;SDS011;69658;44.498;0.166;2023-10-09T01:11:10;5.27;;;2.00;;
80344;SDS011;69658;44.498;0.166;2023-10-09T01:16:35;3.43;;;1.57;;
80344;SDS011;69658;44.498;0.166;2023-10-09T01:22:13;6.53;;;2.00;;
80344;SDS011;69658;44.498;0.166;2023-10-09T01:27:40;8.60;;;2.23;;
80344;SDS011;69658;44.498;0.166;2023-10-09T01:33:18;3.93;;;2.20;;
80344;SDS011;69658;44.498;0.166;2023-10-09T01:38:45;5.30;;;2.20;;
80344;SDS011;69658;44.498;0.166;2023-10-09T01:44:19;6.20;;;2.50;;
80344;SDS011;69658;44.498;0.166;2023-10-09T01:49:54;12.50;;;2.60;;
80344;SDS011;69658;44.498;0.166;2023-10-09T01:55:30;5.63;;;2.10;;
80344;SDS011;69658;44.498;0.166;2023-10-09T02:00:57;8.47;;;2.13;;
80344;SDS011;69658;44.498;0.166;2023-10-09T02:06:32;6.47;;;2.20;;
80344;SDS011;69658;44.498;0.166;2023-10-09T02:12:03;3.90;;;1.70;;
80344;SDS011;69658;44.498;0.166;2023-10-09T02:17:41;2.93;;;1.93;;
80344;SDS011;69658;44.498;0.166;2023-10-09T02:23:13;9.63;;;2.40;;
80344;SDS011;69658;44.498;0.166;2023-10-09T02:28:41;4.10;;;2.33;;
80344;SDS011;69658;44.498;0.166;2023-10-09T02:34:16;5.33;;;2.50;;
80344;SDS011;69658;44.498;0.166;2023-10-09T02:39:48;7.13;;;2.43;;
80344;SDS011;69658;44.498;0.166;2023-10-09T02:45:19;5.67;;;2.20;;
80344;SDS011;69658;44.498;0.166;2023-10-09T02:50:52;4.80;;;1.97;;
80344;SDS011;69658;44.498;0.166;2023-10-09T02:56:25;6.60;;;2.37;;
80344;SDS011;69658;44.498;0.166;2023-10-09T03:01:56;7.70;;;2.80;;
80344;SDS011;69658;44.498;0.166;2023-10-09T03:07:28;3.43;;;1.83;;
80344;SDS011;69658;44.498;0.166;2023-10-09T03:13:03;7.67;;;2.97;;
80344;SDS011;69658;44.498;0.166;2023-10-09T03:18:32;6.37;;;2.70;;
80344;SDS011;69658;44.498;0.166;2023-10-09T03:24:06;4.97;;;2.20;;
80344;SDS011;69658;44.498;0.166;2023-10-09T03:29:39;7.80;;;2.10;;
80344;SDS011;69658;44.498;0.166;2023-10-09T03:35:17;6.97;;;2.70;;
80344;SDS011;69658;44.498;0.166;2023-10-09T03:40:44;7.23;;;2.50;;
80344;SDS011;69658;44.498;0.166;2023-10-09T03:46:22;7.07;;;2.27;;
80344;SDS011;69658;44.498;0.166;2023-10-09T03:51:51;4.87;;;2.50;;
80344;SDS011;69658;44.498;0.166;2023-10-09T03:57:24;4.87;;;2.60;;
80344;SDS011;69658;44.498;0.166;2023-10-09T04:02:55;7.63;;;3.10;;
80344;SDS011;69658;44.498;0.166;2023-10-09T04:08:30;3.53;;;2.20;;
80344;SDS011;69658;44.498;0.166;2023-10-09T04:14:06;3.73;;;2.00;;
80344;SDS011;69658;44.498;0.166;2023-10-09T04:19:39;3.87;;;2.10;;
80344;SDS011;69658;44.498;0.166;2023-10-09T04:25:13;7.10;;;2.50;;
80344;SDS011;69658;44.498;0.166;2023-10-09T04:30:43;7.33;;;2.73;;
80344;SDS011;69658;44.498;0.166;2023-10-09T04:36:21;6.37;;;2.63;;
80344;SDS011;69658;44.498;0.166;2023-10-09T04:41:52;4.53;;;2.20;;
80344;SDS011;69658;44.498;0.166;2023-10-09T04:47:20;4.67;;;2.10;;
80344;SDS011;69658;44.498;0.166;2023-10-09T04:52:53;4.17;;;1.97;;
80344;SDS011;69658;44.498;0.166;2023-10-09T04:58:26;6.57;;;2.37;;
80344;SDS011;69658;44.498;0.166;2023-10-09T05:04:04;6.73;;;2.40;;
80344;SDS011;69658;44.498;0.166;2023-10-09T05:09:37;9.37;;;3.20;;
80344;SDS011;69658;44.498;0.166;2023-10-09T05:20:44;12.20;;;2.43;;
80344;SDS011;69658;44.498;0.166;2023-10-09T05:26:17;10.03;;;2.97;;
80344;SDS011;69658;44.498;0.166;2023-10-09T05:31:54;6.77;;;3.17;;
80344;SDS011;69658;44.498;0.166;2023-10-09T05:37:22;7.23;;;2.90;;
80344;SDS011;69658;44.498;0.166;2023-10-09T05:42:54;9.17;;;2.83;;
80344;SDS011;69658;44.498;0.166;2023-10-09T05:48:29;8.47;;;2.67;;
80344;SDS011;69658;44.498;0.166;2023-10-09T05:54:04;6.83;;;2.80;;
80344;SDS011;69658;44.498;0.166;2023-10-09T05:59:35;5.20;;;2.70;;
80344;SDS011;69658;44.498;0.166;2023-10-09T06:05:06;5.53;;;3.00;;
80344;SDS011;69658;44.498;0.166;2023-10-09T06:10:40;10.07;;;2.77;;
80344;SDS011;69658;44.498;0.166;2023-10-09T06:16:13;5.27;;;2.77;;
80344;SDS011;69658;44.498;0.166;2023-10-09T06:21:41;4.70;;;2.60;;
80344;SDS011;69658;44.498;0.166;2023-10-09T06:27:13;7.33;;;2.93;;
80344;SDS011;69658;44.498;0.166;2023-10-09T06:32:53;7.47;;;2.83;;
80344;SDS011;69658;44.498;0.166;2023-10-09T06:38:29;6.57;;;2.33;;
80344;SDS011;69658;44.498;0.166;2023-10-09T06:43:53;7.73;;;2.80;;
80344;SDS011;69658;44.498;0.166;2023-10-09T06:49:30;7.00;;;2.50;;
80344;SDS011;69658;44.498;0.166;2023-10-09T07:00:38;7.40;;;3.03;;
80344;SDS011;69658;44.498;0.166;2023-10-09T07:06:05;9.37;;;2.80;;
80344;SDS011;69658;44.498;0.166;2023-10-09T07:11:42;8.53;;;3.33;;
80344;SDS011;69658;44.498;0.166;2023-10-09T07:17:10;14.90;;;2.93;;
80344;SDS011;69658;44.498;0.166;2023-10-09T07:22:40;7.70;;;2.77;;
80344;SDS011;69658;44.498;0.166;2023-10-09T07:28:18;5.03;;;2.30;;
80344;SDS011;69658;44.498;0.166;2023-10-09T07:33:52;12.00;;;3.20;;
80344;SDS011;69658;44.498;0.166;2023-10-09T07:39:18;14.03;;;3.73;;
80344;SDS011;69658;44.498;0.166;2023-10-09T07:44:56;23.40;;;3.53;;
80344;SDS011;69658;44.498;0.166;2023-10-09T08:01:36;8.67;;;3.20;;
80344;SDS011;69658;44.498;0.166;2023-10-09T08:07:07;6.50;;;3.20;;
80344;SDS011;69658;44.498;0.166;2023-10-09T08:12:51;7.10;;;2.90;;
80344;SDS011;69658;44.498;0.166;2023-10-09T08:23:49;7.25;;;2.80;;
80344;SDS011;69658;44.498;0.166;2023-10-09T08:29:18;12.65;;;3.25;;
80344;SDS011;69658;44.498;0.166;2023-10-09T08:34:54;8.55;;;3.70;;
80344;SDS011;69658;44.498;0.166;2023-10-09T08:40:21;7.65;;;3.20;;
80344;SDS011;69658;44.498;0.166;2023-10-09T08:45:53;8.25;;;3.40;;
80344;SDS011;69658;44.498;0.166;2023-10-09T08:51:24;15.50;;;4.00;;
80344;SDS011;69658;44.498;0.166;2023-10-09T08:56:57;7.30;;;3.50;;
80344;SDS011;69658;44.498;0.166;2023-10-09T09:02:32;6.75;;;3.40;;
80344;SDS011;69658;44.498;0.166;2023-10-09T09:08:04;9.50;;;4.40;;
80344;SDS011;69658;44.498;0.166;2023-10-09T09:13:35;6.95;;;3.65;;
80344;SDS011;69658;44.498;0.166;2023-10-09T09:19:13;6.50;;;3.85;;
80344;SDS011;69658;44.498;0.166;2023-10-09T09:30:26;6.70;;;3.55;;
80344;SDS011;69658;44.498;0.166;2023-10-09T09:41:24;11.95;;;5.65;;
80344;SDS011;69658;44.498;0.166;2023-10-09T09:46:54;8.70;;;5.70;;
80344;SDS011;69658;44.498;0.166;2023-10-09T09:52:26;9.30;;;4.85;;
80344;SDS011;69658;44.498;0.166;2023-10-09T10:03:31;5.65;;;4.15;;
80344;SDS011;69658;44.498;0.166;2023-10-09T10:09:03;10.50;;;3.45;;
80344;SDS011;69658;44.498;0.166;2023-10-09T10:36:53;8.00;;;3.80;;
80344;SDS011;69658;44.498;0.166;2023-10-09T10:42:29;4.37;;;3.40;;
80344;SDS011;69658;44.498;0.166;2023-10-09T10:47:56;4.87;;;3.40;;
80344;SDS011;69658;44.498;0.166;2023-10-09T10:53:27;4.23;;;2.97;;
80344;SDS011;69658;44.498;0.166;2023-10-09T10:59:04;9.53;;;3.30;;
80344;SDS011;69658;44.498;0.166;2023-10-09T11:04:38;8.27;;;3.40;;
80344;SDS011;69658;44.498;0.166;2023-10-09T11:10:09;9.37;;;4.47;;
80344;SDS011;69658;44.498;0.166;2023-10-09T11:15:43;10.80;;;4.77;;
80344;SDS011;69658;44.498;0.166;2023-10-09T11:21:16;6.20;;;3.00;;
80344;SDS011;69658;44.498;0.166;2023-10-09T11:26:41;8.07;;;3.87;;
80344;SDS011;69658;44.498;0.166;2023-10-09T11:32:18;10.37;;;3.90;;
80344;SDS011;69658;44.498;0.166;2023-10-09T11:37:54;8.53;;;4.03;;
80344;SDS011;69658;44.498;0.166;2023-10-09T11:49:02;6.97;;;3.57;;
80344;SDS011;69658;44.498;0.166;2023-10-09T11:54:29;5.37;;;3.50;;
80344;SDS011;69658;44.498;0.166;2023-10-09T11:59:56;5.63;;;3.67;;
80344;SDS011;69658;44.498;0.166;2023-10-09T12:11:04;10.57;;;3.10;;
80344;SDS011;69658;44.498;0.166;2023-10-09T12:16:35;7.67;;;3.70;;
80344;SDS011;69658;44.498;0.166;2023-10-09T12:22:11;7.07;;;3.50;;
80344;SDS011;69658;44.498;0.166;2023-10-09T12:27:44;3.97;;;3.13;;
80344;SDS011;69658;44.498;0.166;2023-10-09T12:33:16;5.53;;;3.50;;
80344;SDS011;69658;44.498;0.166;2023-10-09T12:38:47;6.10;;;3.17;;
80344;SDS011;69658;44.498;0.166;2023-10-09T12:44:19;6.20;;;3.20;;
80344;SDS011;69658;44.498;0.166;2023-10-09T12:49:51;8.37;;;3.47;;
80344;SDS011;69658;44.498;0.166;2023-10-09T12:55:28;10.03;;;3.87;;
80344;SDS011;69658;44.498;0.166;2023-10-09T13:00:56;6.30;;;3.13;;
80344;SDS011;69658;44.498;0.166;2023-10-09T13:06:27;6.33;;;3.70;;
80344;SDS011;69658;44.498;0.166;2023-10-09T13:12:01;7.13;;;3.30;;
80344;SDS011;69658;44.498;0.166;2023-10-09T13:17:35;4.33;;;2.70;;
80344;SDS011;69658;44.498;0.166;2023-10-09T13:23:07;5.13;;;3.10;;
80344;SDS011;69658;44.498;0.166;2023-10-09T13:34:15;4.53;;;2.77;;
80344;SDS011;69658;44.498;0.166;2023-10-09T13:39:50;4.57;;;2.73;;
80344;SDS011;69658;44.498;0.166;2023-10-09T13:45:17;4.87;;;2.97;;
80344;SDS011;69658;44.498;0.166;2023-10-09T13:50:57;4.33;;;2.60;;
80344;SDS011;69658;44.498;0.166;2023-10-09T13:56:22;4.80;;;2.93;;
80344;SDS011;69658;44.498;0.166;2023-10-09T14:01:57;5.20;;;2.43;;
80344;SDS011;69658;44.498;0.166;2023-10-09T14:07:31;4.77;;;2.97;;
80344;SDS011;69658;44.498;0.166;2023-10-09T14:13:07;5.23;;;2.43;;
80344;SDS011;69658;44.498;0.166;2023-10-09T14:18:37;4.17;;;2.80;;
80344;SDS011;69658;44.498;0.166;2023-10-09T14:29:43;3.93;;;2.60;;
80344;SDS011;69658;44.498;0.166;2023-10-09T14:35:14;3.20;;;2.23;;
80344;SDS011;69658;44.498;0.166;2023-10-09T14:40:46;9.20;;;2.20;;
80344;SDS011;69658;44.498;0.166;2023-10-09T14:46:23;5.53;;;2.60;;
80344;SDS011;69658;44.498;0.166;2023-10-09T14:57:25;3.90;;;2.40;;
80344;SDS011;69658;44.498;0.166;2023-10-09T15:02:56;2.73;;;1.93;;
80344;SDS011;69658;44.498;0.166;2023-10-09T15:19:33;2.87;;;1.90;;
80344;SDS011;69658;44.498;0.166;2023-10-09T15:25:06;4.83;;;2.30;;
80344;SDS011;69658;44.498;0.166;2023-10-09T15:30:38;3.03;;;1.90;;
80344;SDS011;69658;44.498;0.166;2023-10-09T15:36:12;5.30;;;2.30;;
80344;SDS011;69658;44.498;0.166;2023-10-09T15:41:43;4.40;;;2.77;;
80344;SDS011;69658;44.498;0.166;2023-10-09T15:47:16;3.20;;;2.03;;
80344;SDS011;69658;44.498;0.166;2023-10-09T15:52:52;3.30;;;2.20;;
80344;SDS011;69658;44.498;0.166;2023-10-09T15:58:19;8.27;;;2.63;;
80344;SDS011;69658;44.498;0.166;2023-10-09T16:03:51;6.87;;;2.30;;
80344;SDS011;69658;44.498;0.166;2023-10-09T16:09:25;8.43;;;2.60;;
80344;SDS011;69658;44.498;0.166;2023-10-09T16:14:57;12.03;;;3.00;;
80344;SDS011;69658;44.498;0.166;2023-10-09T16:20:32;17.77;;;2.97;;
80344;SDS011;69658;44.498;0.166;2023-10-09T16:31:36;13.90;;;2.50;;
80344;SDS011;69658;44.498;0.166;2023-10-09T16:42:42;32.90;;;3.80;;
80344;SDS011;69658;44.498;0.166;2023-10-09T16:48:15;10.97;;;2.90;;
80344;SDS011;69658;44.498;0.166;2023-10-09T16:53:44;10.47;;;2.80;;
80344;SDS011;69658;44.498;0.166;2023-10-09T16:59:16;11.90;;;2.47;;
80344;SDS011;69658;44.498;0.166;2023-10-09T17:04:53;12.40;;;2.40;;
80344;SDS011;69658;44.498;0.166;2023-10-09T17:10:26;18.57;;;3.90;;
80344;SDS011;69658;44.498;0.166;2023-10-09T17:15:54;10.10;;;2.13;;
80344;SDS011;69658;44.498;0.166;2023-10-09T17:21:26;9.83;;;2.47;;
80344;SDS011;69658;44.498;0.166;2023-10-09T17:26:59;8.37;;;2.00;;
80344;SDS011;69658;44.498;0.166;2023-10-09T17:32:35;5.70;;;2.10;;
80344;SDS011;69658;44.498;0.166;2023-10-09T17:38:05;7.40;;;1.97;;
80344;SDS011;69658;44.498;0.166;2023-10-09T17:43:40;11.93;;;2.20;;
80344;SDS011;69658;44.498;0.166;2023-10-09T17:49:09;9.50;;;2.07;;
80344;SDS011;69658;44.498;0.166;2023-10-09T17:54:43;11.03;;;2.87;;
80344;SDS011;69658;44.498;0.166;2023-10-09T18:00:22;6.07;;;2.10;;
80344;SDS011;69658;44.498;0.166;2023-10-09T18:05:49;16.10;;;3.37;;
80344;SDS011;69658;44.498;0.166;2023-10-09T18:11:22;10.27;;;1.90;;
80344;SDS011;69658;44.498;0.166;2023-10-09T18:16:55;16.40;;;2.33;;
80344;SDS011;69658;44.498;0.166;2023-10-09T18:22:29;9.57;;;2.57;;
80344;SDS011;69658;44.498;0.166;2023-10-09T18:28:00;9.70;;;2.40;;
80344;SDS011;69658;44.498;0.166;2023-10-09T18:33:34;14.73;;;2.43;;
80344;SDS011;69658;44.498;0.166;2023-10-09T18:39:09;10.50;;;3.00;;
80344;SDS011;69658;44.498;0.166;2023-10-09T18:44:43;5.63;;;2.23;;
80344;SDS011;69658;44.498;0.166;2023-10-09T18:50:13;15.97;;;3.10;;
80344;SDS011;69658;44.498;0.166;2023-10-09T18:55:44;8.80;;;2.40;;
80344;SDS011;69658;44.498;0.166;2023-10-09T19:01:17;15.40;;;3.10;;
80344;SDS011;69658;44.498;0.166;2023-10-09T19:06:49;9.60;;;2.47;;
80344;SDS011;69658;44.498;0.166;2023-10-09T19:12:21;7.67;;;2.20;;
80344;SDS011;69658;44.498;0.166;2023-10-09T19:17:54;9.33;;;3.10;;
80344;SDS011;69658;44.498;0.166;2023-10-09T19:23:27;7.17;;;3.13;;
80344;SDS011;69658;44.498;0.166;2023-10-09T19:29:00;11.07;;;3.20;;
80344;SDS011;69658;44.498;0.166;2023-10-09T19:34:34;8.90;;;3.07;;
80344;SDS011;69658;44.498;0.166;2023-10-09T19:40:09;4.60;;;2.50;;
80344;SDS011;69658;44.498;0.166;2023-10-09T19:45:38;6.73;;;3.90;;
80344;SDS011;69658;44.498;0.166;2023-10-09T19:51:13;3.93;;;2.40;;
80344;SDS011;69658;44.498;0.166;2023-10-09T19:56:43;6.67;;;2.50;;
80344;SDS011;69658;44.498;0.166;2023-10-09T20:02:15;5.53;;;2.50;;
80344;SDS011;69658;44.498;0.166;2023-10-09T20:07:49;5.13;;;2.60;;
80344;SDS011;69658;44.498;0.166;2023-10-09T20:13:23;7.27;;;2.80;;
80344;SDS011;69658;44.498;0.166;2023-10-09T20:24:26;8.67;;;2.83;;
80344;SDS011;69658;44.498;0.166;2023-10-09T20:29:58;6.60;;;3.40;;
80344;SDS011;69658;44.498;0.166;2023-10-09T20:35:35;6.60;;;3.33;;
80344;SDS011;69658;44.498;0.166;2023-10-09T20:41:04;3.53;;;2.70;;
80344;SDS011;69658;44.498;0.166;2023-10-09T20:46:38;6.43;;;3.23;;
80344;SDS011;69658;44.498;0.166;2023-10-09T20:52:09;6.23;;;3.13;;
80344;SDS011;69658;44.498;0.166;2023-10-09T20:57:42;6.73;;;2.93;;
80344;SDS011;69658;44.498;0.166;2023-10-09T21:03:15;6.40;;;2.33;;
80344;SDS011;69658;44.498;0.166;2023-10-09T21:08:47;5.77;;;2.93;;
80344;SDS011;69658;44.498;0.166;2023-10-09T21:14:20;4.47;;;2.63;;
80344;SDS011;69658;44.498;0.166;2023-10-09T21:19:53;5.20;;;2.57;;
80344;SDS011;69658;44.498;0.166;2023-10-09T21:25:26;5.03;;;2.97;;
80344;SDS011;69658;44.498;0.166;2023-10-09T21:30:58;4.43;;;2.63;;
80344;SDS011;69658;44.498;0.166;2023-10-09T21:36:31;5.33;;;2.67;;
80344;SDS011;69658;44.498;0.166;2023-10-09T21:42:07;7.57;;;3.80;;
80344;SDS011;69658;44.498;0.166;2023-10-09T21:47:37;7.80;;;3.40;;
80344;SDS011;69658;44.498;0.166;2023-10-09T21:53:09;5.30;;;3.07;;
80344;SDS011;69658;44.498;0.166;2023-10-09T21:58:41;6.13;;;3.70;;
80344;SDS011;69658;44.498;0.166;2023-10-09T22:04:15;7.67;;;2.93;;
80344;SDS011;69658;44.498;0.166;2023-10-09T22:09:46;3.93;;;2.47;;
80344;SDS011;69658;44.498;0.166;2023-10-09T22:15:20;5.70;;;2.63;;
80344;SDS011;69658;44.498;0.166;2023-10-09T22:20:54;6.87;;;2.70;;
80344;SDS011;69658;44.498;0.166;2023-10-09T22:26:26;4.27;;;2.50;;
80344;SDS011;69658;44.498;0.166;2023-10-09T22:32:00;4.03;;;2.83;;
80344;SDS011;69658;44.498;0.166;2023-10-09T22:37:32;5.47;;;2.37;;
80344;SDS011;69658;44.498;0.166;2023-10-09T22:43:05;3.93;;;2.33;;
80344;SDS011;69658;44.498;0.166;2023-10-09T22:48:42;4.40;;;2.70;;
80344;SDS011;69658;44.498;0.166;2023-10-09T22:54:12;4.70;;;2.50;;
80344;SDS011;69658;44.498;0.166;2023-10-09T22:59:44;6.67;;;2.57;;
80344;SDS011;69658;44.498;0.166;2023-10-09T23:05:17;5.67;;;2.80;;
80344;SDS011;69658;44.498;0.166;2023-10-09T23:10:52;8.10;;;2.50;;
80344;SDS011;69658;44.498;0.166;2023-10-09T23:16:24;7.60;;;3.37;;
80344;SDS011;69658;44.498;0.166;2023-10-09T23:21:59;7.20;;;3.13;;
80344;SDS011;69658;44.498;0.166;2023-10-09T23:27:34;4.77;;;2.93;;
80344;SDS011;69658;44.498;0.166;2023-10-09T23:33:04;5.03;;;3.00;;
80344;SDS011;69658;44.498;0.166;2023-10-09T23:38:34;3.00;;;2.17;;
80344;SDS011;69658;44.498;0.166;2023-10-09T23:44:07;5.67;;;3.00;;
80344;SDS011;69658;44.498;0.166;2023-10-09T23:49:35;4.47;;;2.57;;
80344;SDS011;69658;44.498;0.166;2023-10-09T23:55:12;5.83;;;2.67;;
